Skip Navigation Links
NOAA logo - Click to go to the NOAA homepage
NOAA's National Weather Service
Alaska Aviation Weather Unit
  NWS logo - Click to go to the NWS homepage
Left Navbar Graphic     23 AKDT = 07 GMT

   
NOAA is celebrating 200 years of science, service, and stewardship. Visit the NOAA 200th celebration Web site to learn more.
USA.gov is the U.S. Government's official Web portal to all Federal, state and local government Web resources and services.
Facebook
NWS on Facebook

Important Change Regarding the AAWU Web Presence

 

Over the last several months, the AAWU has been working to navigate its webpages to a nationally supported server. Security, as well as other needs, have necessitated the change.  In the process, we have made an effort to enhance the functionality of our website, as well as some of our products. As of June 20, 2017, aawu.arh.noaa.gov will be discontinued. The new AAWU web address is weather.gov/aawu. It is now live and will run in-parallel with the old site until it is discontinued. Please send any feedback or questions regarding the new webpages to nws.ar.aawu.webauthors@noaa.gov.  Thank you for your patience during this time of transition.
AAWU Home :: Display TAF Add Bookmark
TAF PAOT 240532Z 2406/2506 13010KT P6SM SCT025 BKN080 OVC100
     FM241200 11011KT P6SM BKN050 BKN100
     FM241800 11018G25KT 4SM -RA OVC025
     FM242000 13018G25KT 1 1/2SM -RA BR OVC015=

METAR PAOT 240153Z 09003KT 10SM FEW013 BKN018 OVC065 06/03 A2982= METAR PAOT 240253Z VRB03KT 10SM FEW018 BKN050 OVC070 05/03 A2981= METAR PAOT 240353Z 11009KT 10SM BKN062 OVC075 06/02 A2980= METAR PAOT 240453Z 13010KT 10SM FEW029 BKN080 OVC100 06/02 A2979= METAR PAOT 240553Z 13009KT 10SM OVC085 06/02 A2978= METAR PAOT 240653Z 11008KT 10SM FEW090 SCT120 05/02 A2977=
 Alaska TAF Map

NOAA's National Weather Service
Alaska Aviation Weather Unit
6930 Sand Lake Road
Anchorage, AK 99502-1845
Disclaimer
Credits
Glossary
Privacy Policy
About Us
Career Opportunities
Contact AAWU Internet Services Site last modified: April, 17th 2012